sensor_id;sensor_type;location;lat;lon;timestamp;temperature;humidity
5358;DHT22;2702;51.014;7.170;2023-04-25T00:01:32;5.20;99.90
5358;DHT22;2702;51.014;7.170;2023-04-25T00:04:02;5.20;99.90
5358;DHT22;2702;51.014;7.170;2023-04-25T00:06:28;5.20;99.90
5358;DHT22;2702;51.014;7.170;2023-04-25T00:08:55;5.20;99.90
5358;DHT22;2702;51.014;7.170;2023-04-25T00:11:22;5.10;99.90
5358;DHT22;2702;51.014;7.170;2023-04-25T00:13:48;5.10;99.90
5358;DHT22;2702;51.014;7.170;2023-04-25T00:16:16;5.10;99.90
5358;DHT22;2702;51.014;7.170;2023-04-25T00:18:42;5.10;99.90
5358;DHT22;2702;51.014;7.170;2023-04-25T00:21:09;5.10;99.90
5358;DHT22;2702;51.014;7.170;2023-04-25T00:23:36;5.10;99.90
5358;DHT22;2702;51.014;7.170;2023-04-25T00:26:02;5.10;99.90
5358;DHT22;2702;51.014;7.170;2023-04-25T00:28:28;5.10;99.90
5358;DHT22;2702;51.014;7.170;2023-04-25T00:30:54;5.00;99.90
5358;DHT22;2702;51.014;7.170;2023-04-25T00:33:20;5.00;99.90
5358;DHT22;2702;51.014;7.170;2023-04-25T00:35:46;5.10;99.90
5358;DHT22;2702;51.014;7.170;2023-04-25T00:38:12;5.10;99.90
5358;DHT22;2702;51.014;7.170;2023-04-25T00:40:38;5.00;99.90
5358;DHT22;2702;51.014;7.170;2023-04-25T00:43:04;5.10;99.90
5358;DHT22;2702;51.014;7.170;2023-04-25T00:45:30;5.10;99.90
5358;DHT22;2702;51.014;7.170;2023-04-25T00:47:56;5.00;99.90
5358;DHT22;2702;51.014;7.170;2023-04-25T00:50:23;5.00;99.90
5358;DHT22;2702;51.014;7.170;2023-04-25T00:52:49;5.00;99.90
5358;DHT22;2702;51.014;7.170;2023-04-25T00:55:15;5.00;99.90
5358;DHT22;2702;51.014;7.170;2023-04-25T00:57:41;5.00;99.90
5358;DHT22;2702;51.014;7.170;2023-04-25T01:00:08;5.00;99.90
5358;DHT22;2702;51.014;7.170;2023-04-25T01:02:36;4.90;99.90
5358;DHT22;2702;51.014;7.170;2023-04-25T01:05:02;4.90;99.90
5358;DHT22;2702;51.014;7.170;2023-04-25T01:07:29;4.90;99.90
5358;DHT22;2702;51.014;7.170;2023-04-25T01:09:55;4.90;99.90
5358;DHT22;2702;51.014;7.170;2023-04-25T01:12:23;4.80;99.90
5358;DHT22;2702;51.014;7.170;2023-04-25T01:14:49;4.80;99.90
5358;DHT22;2702;51.014;7.170;2023-04-25T01:17:15;4.80;99.90
5358;DHT22;2702;51.014;7.170;2023-04-25T01:19:43;4.80;99.90
5358;DHT22;2702;51.014;7.170;2023-04-25T01:22:09;4.80;99.90
5358;DHT22;2702;51.014;7.170;2023-04-25T01:24:37;4.80;99.90
5358;DHT22;2702;51.014;7.170;2023-04-25T01:27:03;4.90;99.90
5358;DHT22;2702;51.014;7.170;2023-04-25T01:29:30;4.90;99.90
5358;DHT22;2702;51.014;7.170;2023-04-25T01:31:56;4.90;99.90
5358;DHT22;2702;51.014;7.170;2023-04-25T01:34:24;5.00;99.90
5358;DHT22;2702;51.014;7.170;2023-04-25T01:36:51;4.90;99.90
5358;DHT22;2702;51.014;7.170;2023-04-25T01:39:18;4.90;99.90
5358;DHT22;2702;51.014;7.170;2023-04-25T01:41:45;4.90;99.90
5358;DHT22;2702;51.014;7.170;2023-04-25T01:44:11;4.90;99.90
5358;DHT22;2702;51.014;7.170;2023-04-25T01:46:37;4.90;99.90
5358;DHT22;2702;51.014;7.170;2023-04-25T01:49:03;4.90;99.90
5358;DHT22;2702;51.014;7.170;2023-04-25T01:51:30;4.90;99.90
5358;DHT22;2702;51.014;7.170;2023-04-25T01:53:57;4.90;99.90
5358;DHT22;2702;51.014;7.170;2023-04-25T01:56:24;4.90;99.90
5358;DHT22;2702;51.014;7.170;2023-04-25T01:58:51;4.90;99.90
5358;DHT22;2702;51.014;7.170;2023-04-25T02:01:17;4.90;99.90
5358;DHT22;2702;51.014;7.170;2023-04-25T02:03:43;5.00;99.90
5358;DHT22;2702;51.014;7.170;2023-04-25T02:06:09;4.90;99.90
5358;DHT22;2702;51.014;7.170;2023-04-25T02:08:35;5.00;99.90
5358;DHT22;2702;51.014;7.170;2023-04-25T02:11:02;4.90;99.90
5358;DHT22;2702;51.014;7.170;2023-04-25T02:13:28;5.00;99.90
5358;DHT22;2702;51.014;7.170;2023-04-25T02:15:54;5.00;99.90
5358;DHT22;2702;51.014;7.170;2023-04-25T02:18:20;4.90;99.90
5358;DHT22;2702;51.014;7.170;2023-04-25T02:20:46;4.90;99.90
5358;DHT22;2702;51.014;7.170;2023-04-25T02:23:12;5.00;99.90
5358;DHT22;2702;51.014;7.170;2023-04-25T02:25:39;5.00;99.90
5358;DHT22;2702;51.014;7.170;2023-04-25T02:28:05;5.00;99.90
5358;DHT22;2702;51.014;7.170;2023-04-25T02:30:30;4.90;99.90
5358;DHT22;2702;51.014;7.170;2023-04-25T02:32:56;4.90;99.90
5358;DHT22;2702;51.014;7.170;2023-04-25T02:35:22;4.90;99.90
5358;DHT22;2702;51.014;7.170;2023-04-25T02:37:48;4.90;99.90
5358;DHT22;2702;51.014;7.170;2023-04-25T02:40:14;4.90;99.90
5358;DHT22;2702;51.014;7.170;2023-04-25T02:42:40;4.90;99.90
5358;DHT22;2702;51.014;7.170;2023-04-25T02:45:06;4.80;99.90
5358;DHT22;2702;51.014;7.170;2023-04-25T02:47:32;4.80;99.90
5358;DHT22;2702;51.014;7.170;2023-04-25T02:49:58;4.80;99.90
5358;DHT22;2702;51.014;7.170;2023-04-25T02:52:24;4.80;99.90
5358;DHT22;2702;51.014;7.170;2023-04-25T02:54:50;4.80;99.90
5358;DHT22;2702;51.014;7.170;2023-04-25T02:57:16;4.90;99.90
5358;DHT22;2702;51.014;7.170;2023-04-25T02:59:42;4.90;99.90
5358;DHT22;2702;51.014;7.170;2023-04-25T03:02:09;4.90;99.90
5358;DHT22;2702;51.014;7.170;2023-04-25T03:04:35;4.90;99.90
5358;DHT22;2702;51.014;7.170;2023-04-25T03:07:01;4.90;99.90
5358;DHT22;2702;51.014;7.170;2023-04-25T03:09:27;4.90;99.90
5358;DHT22;2702;51.014;7.170;2023-04-25T03:11:53;4.90;99.90
5358;DHT22;2702;51.014;7.170;2023-04-25T03:14:19;4.90;99.90
5358;DHT22;2702;51.014;7.170;2023-04-25T03:16:45;4.90;99.90
5358;DHT22;2702;51.014;7.170;2023-04-25T03:19:11;5.00;99.90
5358;DHT22;2702;51.014;7.170;2023-04-25T03:21:37;5.00;99.90
5358;DHT22;2702;51.014;7.170;2023-04-25T03:24:04;5.00;99.90
5358;DHT22;2702;51.014;7.170;2023-04-25T03:26:31;5.10;99.90
5358;DHT22;2702;51.014;7.170;2023-04-25T03:28:57;5.20;99.90
5358;DHT22;2702;51.014;7.170;2023-04-25T03:31:22;5.10;99.90
5358;DHT22;2702;51.014;7.170;2023-04-25T03:33:48;5.10;99.90
5358;DHT22;2702;51.014;7.170;2023-04-25T03:36:14;5.20;99.90
5358;DHT22;2702;51.014;7.170;2023-04-25T03:38:40;5.20;99.90
5358;DHT22;2702;51.014;7.170;2023-04-25T03:41:07;5.20;99.90
5358;DHT22;2702;51.014;7.170;2023-04-25T03:43:33;5.20;99.90
5358;DHT22;2702;51.014;7.170;2023-04-25T03:45:59;5.10;99.90
5358;DHT22;2702;51.014;7.170;2023-04-25T03:48:26;5.20;99.90
5358;DHT22;2702;51.014;7.170;2023-04-25T03:50:53;5.20;99.90
5358;DHT22;2702;51.014;7.170;2023-04-25T03:53:19;5.30;99.90
5358;DHT22;2702;51.014;7.170;2023-04-25T03:55:45;5.30;99.90
5358;DHT22;2702;51.014;7.170;2023-04-25T03:58:11;5.30;99.90
5358;DHT22;2702;51.014;7.170;2023-04-25T04:00:37;5.30;99.90
5358;DHT22;2702;51.014;7.170;2023-04-25T04:03:02;5.30;99.90
5358;DHT22;2702;51.014;7.170;2023-04-25T04:05:28;5.30;99.90
5358;DHT22;2702;51.014;7.170;2023-04-25T04:07:55;5.30;99.90
5358;DHT22;2702;51.014;7.170;2023-04-25T04:10:21;5.30;99.90
5358;DHT22;2702;51.014;7.170;2023-04-25T04:12:47;5.30;99.90
5358;DHT22;2702;51.014;7.170;2023-04-25T04:15:13;5.30;99.90
5358;DHT22;2702;51.014;7.170;2023-04-25T04:17:39;5.20;99.90
5358;DHT22;2702;51.014;7.170;2023-04-25T04:20:07;5.20;99.90
5358;DHT22;2702;51.014;7.170;2023-04-25T04:22:34;5.30;99.90
5358;DHT22;2702;51.014;7.170;2023-04-25T04:25:00;5.10;99.90
5358;DHT22;2702;51.014;7.170;2023-04-25T04:27:27;5.20;99.90
5358;DHT22;2702;51.014;7.170;2023-04-25T04:29:54;5.20;99.90
5358;DHT22;2702;51.014;7.170;2023-04-25T04:32:20;5.20;99.90
5358;DHT22;2702;51.014;7.170;2023-04-25T04:34:46;5.20;99.90
5358;DHT22;2702;51.014;7.170;2023-04-25T04:37:13;5.20;99.90
5358;DHT22;2702;51.014;7.170;2023-04-25T04:39:38;5.20;99.90
5358;DHT22;2702;51.014;7.170;2023-04-25T04:42:04;5.20;99.90
5358;DHT22;2702;51.014;7.170;2023-04-25T04:44:30;5.20;99.90
5358;DHT22;2702;51.014;7.170;2023-04-25T04:47:00;5.20;99.90
5358;DHT22;2702;51.014;7.170;2023-04-25T04:49:26;5.10;99.90
5358;DHT22;2702;51.014;7.170;2023-04-25T04:51:51;5.20;99.90
5358;DHT22;2702;51.014;7.170;2023-04-25T04:54:17;5.30;99.90
5358;DHT22;2702;51.014;7.170;2023-04-25T04:56:43;5.30;99.90
5358;DHT22;2702;51.014;7.170;2023-04-25T04:59:09;5.30;99.90
5358;DHT22;2702;51.014;7.170;2023-04-25T05:01:36;5.30;99.90
5358;DHT22;2702;51.014;7.170;2023-04-25T05:04:02;5.30;99.90
5358;DHT22;2702;51.014;7.170;2023-04-25T05:06:29;5.30;99.90
5358;DHT22;2702;51.014;7.170;2023-04-25T05:08:57;5.30;99.90
5358;DHT22;2702;51.014;7.170;2023-04-25T05:11:24;5.30;99.90
5358;DHT22;2702;51.014;7.170;2023-04-25T05:13:53;5.30;99.90
5358;DHT22;2702;51.014;7.170;2023-04-25T05:16:20;5.30;99.90
5358;DHT22;2702;51.014;7.170;2023-04-25T05:18:46;5.30;99.90
5358;DHT22;2702;51.014;7.170;2023-04-25T05:21:12;5.20;99.90
5358;DHT22;2702;51.014;7.170;2023-04-25T05:23:38;5.30;99.90
5358;DHT22;2702;51.014;7.170;2023-04-25T05:26:04;5.30;99.90
5358;DHT22;2702;51.014;7.170;2023-04-25T05:28:31;5.30;99.90
5358;DHT22;2702;51.014;7.170;2023-04-25T05:30:57;5.40;99.90
5358;DHT22;2702;51.014;7.170;2023-04-25T05:33:23;5.30;99.90
5358;DHT22;2702;51.014;7.170;2023-04-25T05:35:49;5.30;99.90
5358;DHT22;2702;51.014;7.170;2023-04-25T05:38:15;5.30;99.90
5358;DHT22;2702;51.014;7.170;2023-04-25T05:40:41;5.40;99.90
5358;DHT22;2702;51.014;7.170;2023-04-25T05:43:08;5.50;99.90
5358;DHT22;2702;51.014;7.170;2023-04-25T05:45:33;5.40;99.90
5358;DHT22;2702;51.014;7.170;2023-04-25T05:47:59;5.30;99.90
5358;DHT22;2702;51.014;7.170;2023-04-25T05:50:25;5.40;99.90
5358;DHT22;2702;51.014;7.170;2023-04-25T05:52:51;5.30;99.90
5358;DHT22;2702;51.014;7.170;2023-04-25T05:55:17;5.40;99.90
5358;DHT22;2702;51.014;7.170;2023-04-25T05:57:43;5.50;99.90
5358;DHT22;2702;51.014;7.170;2023-04-25T06:00:12;5.50;99.90
5358;DHT22;2702;51.014;7.170;2023-04-25T06:02:39;5.60;99.90
5358;DHT22;2702;51.014;7.170;2023-04-25T06:05:05;5.50;99.90
5358;DHT22;2702;51.014;7.170;2023-04-25T06:07:31;5.50;99.90
5358;DHT22;2702;51.014;7.170;2023-04-25T06:09:57;5.50;99.90
5358;DHT22;2702;51.014;7.170;2023-04-25T06:12:23;5.70;99.90
5358;DHT22;2702;51.014;7.170;2023-04-25T06:14:49;5.80;99.90
5358;DHT22;2702;51.014;7.170;2023-04-25T06:17:15;5.80;99.90
5358;DHT22;2702;51.014;7.170;2023-04-25T06:19:40;5.90;99.90
5358;DHT22;2702;51.014;7.170;2023-04-25T06:22:07;5.90;99.90
5358;DHT22;2702;51.014;7.170;2023-04-25T06:24:33;5.80;99.90
5358;DHT22;2702;51.014;7.170;2023-04-25T06:26:59;6.00;99.90
5358;DHT22;2702;51.014;7.170;2023-04-25T06:29:25;6.00;99.90
5358;DHT22;2702;51.014;7.170;2023-04-25T06:31:51;6.00;99.90
5358;DHT22;2702;51.014;7.170;2023-04-25T06:34:17;6.00;99.90
5358;DHT22;2702;51.014;7.170;2023-04-25T06:36:43;6.00;99.90
5358;DHT22;2702;51.014;7.170;2023-04-25T06:39:10;6.10;99.90
5358;DHT22;2702;51.014;7.170;2023-04-25T06:41:36;6.20;99.90
5358;DHT22;2702;51.014;7.170;2023-04-25T06:44:02;6.20;99.90
5358;DHT22;2702;51.014;7.170;2023-04-25T06:46:28;6.30;99.90
5358;DHT22;2702;51.014;7.170;2023-04-25T06:48:54;6.40;99.90
5358;DHT22;2702;51.014;7.170;2023-04-25T06:51:20;6.50;99.90
5358;DHT22;2702;51.014;7.170;2023-04-25T06:53:46;6.50;99.90
5358;DHT22;2702;51.014;7.170;2023-04-25T06:56:12;6.70;99.90
5358;DHT22;2702;51.014;7.170;2023-04-25T06:58:38;6.80;99.90
5358;DHT22;2702;51.014;7.170;2023-04-25T07:01:04;6.90;99.90
5358;DHT22;2702;51.014;7.170;2023-04-25T07:03:30;7.00;99.90
5358;DHT22;2702;51.014;7.170;2023-04-25T07:05:56;6.90;99.90
5358;DHT22;2702;51.014;7.170;2023-04-25T07:08:21;6.80;99.90
5358;DHT22;2702;51.014;7.170;2023-04-25T07:10:48;6.60;99.90
5358;DHT22;2702;51.014;7.170;2023-04-25T07:13:13;6.60;99.90
5358;DHT22;2702;51.014;7.170;2023-04-25T07:15:39;6.70;99.90
5358;DHT22;2702;51.014;7.170;2023-04-25T07:18:05;6.70;99.90
5358;DHT22;2702;51.014;7.170;2023-04-25T07:20:31;6.70;99.90
5358;DHT22;2702;51.014;7.170;2023-04-25T07:22:58;6.60;99.90
5358;DHT22;2702;51.014;7.170;2023-04-25T07:25:24;6.80;99.90
5358;DHT22;2702;51.014;7.170;2023-04-25T07:27:50;7.00;99.90
5358;DHT22;2702;51.014;7.170;2023-04-25T07:30:16;7.10;99.90
5358;DHT22;2702;51.014;7.170;2023-04-25T07:32:41;6.90;99.90
5358;DHT22;2702;51.014;7.170;2023-04-25T07:35:07;6.90;99.90
5358;DHT22;2702;51.014;7.170;2023-04-25T07:37:34;7.00;99.90
5358;DHT22;2702;51.014;7.170;2023-04-25T07:40:02;6.80;99.90
5358;DHT22;2702;51.014;7.170;2023-04-25T07:42:29;6.80;99.90
5358;DHT22;2702;51.014;7.170;2023-04-25T07:44:55;6.90;99.90
5358;DHT22;2702;51.014;7.170;2023-04-25T07:47:21;6.80;99.90
5358;DHT22;2702;51.014;7.170;2023-04-25T07:49:47;6.60;99.90
5358;DHT22;2702;51.014;7.170;2023-04-25T07:52:13;6.50;99.90
5358;DHT22;2702;51.014;7.170;2023-04-25T07:54:39;6.70;99.90
5358;DHT22;2702;51.014;7.170;2023-04-25T07:57:05;6.60;99.90
5358;DHT22;2702;51.014;7.170;2023-04-25T07:59:34;6.70;99.90
5358;DHT22;2702;51.014;7.170;2023-04-25T08:02:01;6.90;99.90
5358;DHT22;2702;51.014;7.170;2023-04-25T08:04:28;7.00;99.90
5358;DHT22;2702;51.014;7.170;2023-04-25T08:06:54;7.10;99.90
5358;DHT22;2702;51.014;7.170;2023-04-25T08:09:20;7.20;99.90
5358;DHT22;2702;51.014;7.170;2023-04-25T08:11:46;7.10;99.90
5358;DHT22;2702;51.014;7.170;2023-04-25T08:14:13;7.10;99.90
5358;DHT22;2702;51.014;7.170;2023-04-25T08:16:39;7.20;99.90
5358;DHT22;2702;51.014;7.170;2023-04-25T08:19:06;7.30;99.90
5358;DHT22;2702;51.014;7.170;2023-04-25T08:21:32;7.30;99.90
5358;DHT22;2702;51.014;7.170;2023-04-25T08:23:58;7.30;99.90
5358;DHT22;2702;51.014;7.170;2023-04-25T08:26:24;7.40;99.90
5358;DHT22;2702;51.014;7.170;2023-04-25T08:28:50;7.30;99.90
5358;DHT22;2702;51.014;7.170;2023-04-25T08:31:17;7.20;99.90
5358;DHT22;2702;51.014;7.170;2023-04-25T08:33:43;7.10;99.90
5358;DHT22;2702;51.014;7.170;2023-04-25T08:36:10;7.00;99.90
5358;DHT22;2702;51.014;7.170;2023-04-25T08:38:36;6.80;99.90
5358;DHT22;2702;51.014;7.170;2023-04-25T08:41:03;6.80;99.90
5358;DHT22;2702;51.014;7.170;2023-04-25T08:43:31;7.00;99.90
5358;DHT22;2702;51.014;7.170;2023-04-25T08:46:01;6.80;99.90
5358;DHT22;2702;51.014;7.170;2023-04-25T08:48:27;6.60;99.90
5358;DHT22;2702;51.014;7.170;2023-04-25T08:50:56;6.70;99.90
5358;DHT22;2702;51.014;7.170;2023-04-25T08:53:26;6.70;99.90
5358;DHT22;2702;51.014;7.170;2023-04-25T08:55:57;6.90;99.90
5358;DHT22;2702;51.014;7.170;2023-04-25T08:58:24;6.90;99.90
5358;DHT22;2702;51.014;7.170;2023-04-25T09:00:51;6.80;99.90
5358;DHT22;2702;51.014;7.170;2023-04-25T09:03:19;6.80;99.90
5358;DHT22;2702;51.014;7.170;2023-04-25T09:05:45;6.80;99.90
5358;DHT22;2702;51.014;7.170;2023-04-25T09:08:11;6.90;99.90
5358;DHT22;2702;51.014;7.170;2023-04-25T09:10:37;7.00;99.90
5358;DHT22;2702;51.014;7.170;2023-04-25T09:13:12;7.00;99.90
5358;DHT22;2702;51.014;7.170;2023-04-25T09:15:52;7.10;99.90
5358;DHT22;2702;51.014;7.170;2023-04-25T09:18:26;7.20;99.90
5358;DHT22;2702;51.014;7.170;2023-04-25T09:20:56;7.40;99.90
5358;DHT22;2702;51.014;7.170;2023-04-25T09:23:24;7.50;99.90
5358;DHT22;2702;51.014;7.170;2023-04-25T09:25:53;8.00;99.90
5358;DHT22;2702;51.014;7.170;2023-04-25T09:28:24;8.20;99.90
5358;DHT22;2702;51.014;7.170;2023-04-25T09:30:57;8.40;99.90
5358;DHT22;2702;51.014;7.170;2023-04-25T09:33:33;8.40;99.90
5358;DHT22;2702;51.014;7.170;2023-04-25T09:36:09;8.30;99.90
5358;DHT22;2702;51.014;7.170;2023-04-25T09:38:46;8.10;99.90
5358;DHT22;2702;51.014;7.170;2023-04-25T09:41:12;7.80;99.90
5358;DHT22;2702;51.014;7.170;2023-04-25T09:43:39;7.70;99.90
5358;DHT22;2702;51.014;7.170;2023-04-25T09:46:09;7.80;99.90
5358;DHT22;2702;51.014;7.170;2023-04-25T09:48:36;7.80;99.90
5358;DHT22;2702;51.014;7.170;2023-04-25T09:51:13;8.20;99.90
5358;DHT22;2702;51.014;7.170;2023-04-25T09:53:41;8.70;99.90
5358;DHT22;2702;51.014;7.170;2023-04-25T09:56:09;8.60;99.90
5358;DHT22;2702;51.014;7.170;2023-04-25T09:58:37;8.50;99.90
5358;DHT22;2702;51.014;7.170;2023-04-25T10:01:09;8.70;99.90
5358;DHT22;2702;51.014;7.170;2023-04-25T10:03:37;8.50;99.90
5358;DHT22;2702;51.014;7.170;2023-04-25T10:06:11;8.30;99.90
5358;DHT22;2702;51.014;7.170;2023-04-25T10:08:38;8.20;99.90
5358;DHT22;2702;51.014;7.170;2023-04-25T10:11:07;8.10;99.90
5358;DHT22;2702;51.014;7.170;2023-04-25T10:13:35;8.20;99.90
5358;DHT22;2702;51.014;7.170;2023-04-25T10:16:03;8.20;99.90
5358;DHT22;2702;51.014;7.170;2023-04-25T10:18:31;8.20;99.90
5358;DHT22;2702;51.014;7.170;2023-04-25T10:21:02;8.30;99.90
5358;DHT22;2702;51.014;7.170;2023-04-25T10:23:31;8.40;99.90
5358;DHT22;2702;51.014;7.170;2023-04-25T10:25:58;8.60;99.90
5358;DHT22;2702;51.014;7.170;2023-04-25T10:28:25;8.80;99.90
5358;DHT22;2702;51.014;7.170;2023-04-25T10:31:02;9.20;99.90
5358;DHT22;2702;51.014;7.170;2023-04-25T10:33:37;9.50;99.90
5358;DHT22;2702;51.014;7.170;2023-04-25T10:36:18;9.20;99.90
5358;DHT22;2702;51.014;7.170;2023-04-25T10:38:45;8.90;99.90
5358;DHT22;2702;51.014;7.170;2023-04-25T10:41:13;8.90;99.90
5358;DHT22;2702;51.014;7.170;2023-04-25T10:43:43;8.90;99.90
5358;DHT22;2702;51.014;7.170;2023-04-25T10:48:58;8.70;99.90
5358;DHT22;2702;51.014;7.170;2023-04-25T10:51:31;8.60;99.90
5358;DHT22;2702;51.014;7.170;2023-04-25T10:56:27;8.10;99.90
5358;DHT22;2702;51.014;7.170;2023-04-25T10:59:13;8.00;99.90
5358;DHT22;2702;51.014;7.170;2023-04-25T11:01:44;8.00;99.90
5358;DHT22;2702;51.014;7.170;2023-04-25T11:09:24;8.10;99.90
5358;DHT22;2702;51.014;7.170;2023-04-25T11:11:57;8.40;99.90
5358;DHT22;2702;51.014;7.170;2023-04-25T11:14:27;8.50;99.90
5358;DHT22;2702;51.014;7.170;2023-04-25T11:16:57;8.60;99.90
5358;DHT22;2702;51.014;7.170;2023-04-25T11:19:24;8.50;99.90
5358;DHT22;2702;51.014;7.170;2023-04-25T11:21:54;8.50;99.90
5358;DHT22;2702;51.014;7.170;2023-04-25T11:26:53;9.40;99.90
5358;DHT22;2702;51.014;7.170;2023-04-25T11:29:22;9.00;99.90
5358;DHT22;2702;51.014;7.170;2023-04-25T11:31:49;8.90;99.90
5358;DHT22;2702;51.014;7.170;2023-04-25T11:34:20;8.70;99.90
5358;DHT22;2702;51.014;7.170;2023-04-25T11:36:46;8.60;99.90
5358;DHT22;2702;51.014;7.170;2023-04-25T11:39:12;8.80;99.90
5358;DHT22;2702;51.014;7.170;2023-04-25T11:41:39;8.80;99.90
5358;DHT22;2702;51.014;7.170;2023-04-25T11:44:05;9.00;99.90
5358;DHT22;2702;51.014;7.170;2023-04-25T11:46:34;9.00;99.90
5358;DHT22;2702;51.014;7.170;2023-04-25T11:49:00;9.20;99.90
5358;DHT22;2702;51.014;7.170;2023-04-25T11:51:27;9.40;99.90
5358;DHT22;2702;51.014;7.170;2023-04-25T11:53:53;9.70;99.90
5358;DHT22;2702;51.014;7.170;2023-04-25T11:56:20;10.10;99.90
5358;DHT22;2702;51.014;7.170;2023-04-25T12:01:27;10.00;99.90
5358;DHT22;2702;51.014;7.170;2023-04-25T12:03:53;10.40;99.90
5358;DHT22;2702;51.014;7.170;2023-04-25T12:06:19;10.50;99.90
5358;DHT22;2702;51.014;7.170;2023-04-25T12:09:06;10.50;99.90
5358;DHT22;2702;51.014;7.170;2023-04-25T12:11:40;10.10;99.90
5358;DHT22;2702;51.014;7.170;2023-04-25T12:14:06;10.10;99.90
5358;DHT22;2702;51.014;7.170;2023-04-25T12:16:45;10.30;99.90
5358;DHT22;2702;51.014;7.170;2023-04-25T12:19:15;10.80;99.90
5358;DHT22;2702;51.014;7.170;2023-04-25T12:21:42;11.20;99.90
5358;DHT22;2702;51.014;7.170;2023-04-25T12:24:11;11.50;99.90
5358;DHT22;2702;51.014;7.170;2023-04-25T12:27:07;11.20;99.90
5358;DHT22;2702;51.014;7.170;2023-04-25T12:29:35;10.30;99.90
5358;DHT22;2702;51.014;7.170;2023-04-25T12:32:01;10.20;99.90
5358;DHT22;2702;51.014;7.170;2023-04-25T12:34:27;10.00;99.90
5358;DHT22;2702;51.014;7.170;2023-04-25T12:36:54;10.40;99.90
5358;DHT22;2702;51.014;7.170;2023-04-25T12:39:24;10.50;99.90
5358;DHT22;2702;51.014;7.170;2023-04-25T12:41:51;10.60;99.90
5358;DHT22;2702;51.014;7.170;2023-04-25T12:44:21;10.20;99.90
5358;DHT22;2702;51.014;7.170;2023-04-25T12:46:48;9.90;99.90
5358;DHT22;2702;51.014;7.170;2023-04-25T12:49:14;9.70;99.90
5358;DHT22;2702;51.014;7.170;2023-04-25T12:51:40;9.80;99.90
5358;DHT22;2702;51.014;7.170;2023-04-25T12:54:07;9.70;99.90
5358;DHT22;2702;51.014;7.170;2023-04-25T12:56:34;9.60;99.90
5358;DHT22;2702;51.014;7.170;2023-04-25T12:59:02;9.40;99.90
5358;DHT22;2702;51.014;7.170;2023-04-25T13:01:30;9.20;99.90
5358;DHT22;2702;51.014;7.170;2023-04-25T13:03:57;8.90;99.90
5358;DHT22;2702;51.014;7.170;2023-04-25T13:06:23;8.90;99.90
5358;DHT22;2702;51.014;7.170;2023-04-25T13:08:49;8.80;99.90
5358;DHT22;2702;51.014;7.170;2023-04-25T13:11:15;8.60;99.90
5358;DHT22;2702;51.014;7.170;2023-04-25T13:13:42;8.50;99.90
5358;DHT22;2702;51.014;7.170;2023-04-25T13:16:08;8.60;99.90
5358;DHT22;2702;51.014;7.170;2023-04-25T13:18:34;8.50;99.90
5358;DHT22;2702;51.014;7.170;2023-04-25T13:21:00;8.50;99.90
5358;DHT22;2702;51.014;7.170;2023-04-25T13:23:27;8.40;99.90
5358;DHT22;2702;51.014;7.170;2023-04-25T13:25:55;8.30;99.90
5358;DHT22;2702;51.014;7.170;2023-04-25T13:28:24;8.40;99.90
5358;DHT22;2702;51.014;7.170;2023-04-25T13:30:50;8.60;99.90
5358;DHT22;2702;51.014;7.170;2023-04-25T13:33:17;8.70;99.90
5358;DHT22;2702;51.014;7.170;2023-04-25T13:35:44;8.70;99.90
5358;DHT22;2702;51.014;7.170;2023-04-25T13:38:13;8.70;99.90
5358;DHT22;2702;51.014;7.170;2023-04-25T13:40:39;8.20;99.90
5358;DHT22;2702;51.014;7.170;2023-04-25T13:43:05;8.20;99.90
5358;DHT22;2702;51.014;7.170;2023-04-25T13:45:32;8.20;99.90
5358;DHT22;2702;51.014;7.170;2023-04-25T13:47:58;8.40;99.90
5358;DHT22;2702;51.014;7.170;2023-04-25T13:50:24;8.70;99.90
5358;DHT22;2702;51.014;7.170;2023-04-25T13:52:50;8.90;99.90
5358;DHT22;2702;51.014;7.170;2023-04-25T13:55:16;9.30;99.90
5358;DHT22;2702;51.014;7.170;2023-04-25T13:57:42;9.70;99.90
5358;DHT22;2702;51.014;7.170;2023-04-25T14:00:08;9.90;99.90
5358;DHT22;2702;51.014;7.170;2023-04-25T14:02:36;10.20;99.90
5358;DHT22;2702;51.014;7.170;2023-04-25T14:05:03;10.10;99.90
5358;DHT22;2702;51.014;7.170;2023-04-25T14:07:30;10.00;99.90
5358;DHT22;2702;51.014;7.170;2023-04-25T14:09:56;10.10;99.90
5358;DHT22;2702;51.014;7.170;2023-04-25T14:12:23;10.30;99.90
5358;DHT22;2702;51.014;7.170;2023-04-25T14:14:49;10.40;99.90
5358;DHT22;2702;51.014;7.170;2023-04-25T14:17:15;10.20;99.90
5358;DHT22;2702;51.014;7.170;2023-04-25T14:19:41;9.80;99.90
5358;DHT22;2702;51.014;7.170;2023-04-25T14:22:11;9.60;99.90
5358;DHT22;2702;51.014;7.170;2023-04-25T14:24:37;9.70;99.90
5358;DHT22;2702;51.014;7.170;2023-04-25T14:27:03;9.80;99.90
5358;DHT22;2702;51.014;7.170;2023-04-25T14:29:30;9.80;99.90
5358;DHT22;2702;51.014;7.170;2023-04-25T14:31:55;9.60;99.90
5358;DHT22;2702;51.014;7.170;2023-04-25T14:34:23;9.60;99.90
5358;DHT22;2702;51.014;7.170;2023-04-25T14:36:49;9.70;99.90
5358;DHT22;2702;51.014;7.170;2023-04-25T14:39:15;9.50;99.90
5358;DHT22;2702;51.014;7.170;2023-04-25T14:41:42;9.10;99.90
5358;DHT22;2702;51.014;7.170;2023-04-25T14:44:08;9.30;99.90
5358;DHT22;2702;51.014;7.170;2023-04-25T14:46:34;9.70;99.90
5358;DHT22;2702;51.014;7.170;2023-04-25T14:49:02;10.00;99.90
5358;DHT22;2702;51.014;7.170;2023-04-25T14:52:13;10.30;99.90
5358;DHT22;2702;51.014;7.170;2023-04-25T14:55:16;10.50;99.90
5358;DHT22;2702;51.014;7.170;2023-04-25T14:57:45;10.70;99.90
5358;DHT22;2702;51.014;7.170;2023-04-25T15:00:11;10.30;99.90
5358;DHT22;2702;51.014;7.170;2023-04-25T15:02:40;9.80;99.90
5358;DHT22;2702;51.014;7.170;2023-04-25T15:05:07;9.20;99.90
5358;DHT22;2702;51.014;7.170;2023-04-25T15:07:34;8.90;99.90
5358;DHT22;2702;51.014;7.170;2023-04-25T15:10:00;9.00;99.90
5358;DHT22;2702;51.014;7.170;2023-04-25T15:12:26;9.10;99.90
5358;DHT22;2702;51.014;7.170;2023-04-25T15:14:54;9.30;99.90
5358;DHT22;2702;51.014;7.170;2023-04-25T15:17:21;9.20;99.90
5358;DHT22;2702;51.014;7.170;2023-04-25T15:19:47;9.60;99.90
5358;DHT22;2702;51.014;7.170;2023-04-25T15:22:13;9.70;99.90
5358;DHT22;2702;51.014;7.170;2023-04-25T15:24:39;10.00;99.90
5358;DHT22;2702;51.014;7.170;2023-04-25T15:27:05;10.00;99.90
5358;DHT22;2702;51.014;7.170;2023-04-25T15:29:31;9.60;99.90
5358;DHT22;2702;51.014;7.170;2023-04-25T15:31:57;9.70;99.90
5358;DHT22;2702;51.014;7.170;2023-04-25T15:34:23;9.40;99.90
5358;DHT22;2702;51.014;7.170;2023-04-25T15:36:49;9.40;99.90
5358;DHT22;2702;51.014;7.170;2023-04-25T15:39:15;9.30;99.90
5358;DHT22;2702;51.014;7.170;2023-04-25T15:41:41;9.40;99.90
5358;DHT22;2702;51.014;7.170;2023-04-25T15:44:07;9.20;99.90
5358;DHT22;2702;51.014;7.170;2023-04-25T15:46:34;9.30;99.90
5358;DHT22;2702;51.014;7.170;2023-04-25T15:48:59;9.20;99.90
5358;DHT22;2702;51.014;7.170;2023-04-25T15:51:26;9.40;99.90
5358;DHT22;2702;51.014;7.170;2023-04-25T15:53:52;9.30;99.90
5358;DHT22;2702;51.014;7.170;2023-04-25T15:56:18;9.40;99.90
5358;DHT22;2702;51.014;7.170;2023-04-25T15:58:44;9.30;99.90
5358;DHT22;2702;51.014;7.170;2023-04-25T16:01:10;9.00;99.90
5358;DHT22;2702;51.014;7.170;2023-04-25T16:03:36;9.10;99.90
5358;DHT22;2702;51.014;7.170;2023-04-25T16:06:02;9.10;99.90
5358;DHT22;2702;51.014;7.170;2023-04-25T16:08:29;9.30;99.90
5358;DHT22;2702;51.014;7.170;2023-04-25T16:10:59;9.50;99.90
5358;DHT22;2702;51.014;7.170;2023-04-25T16:13:25;9.60;99.90
5358;DHT22;2702;51.014;7.170;2023-04-25T16:15:52;9.80;99.90
5358;DHT22;2702;51.014;7.170;2023-04-25T16:18:17;10.20;99.90
5358;DHT22;2702;51.014;7.170;2023-04-25T16:20:43;10.30;99.90
5358;DHT22;2702;51.014;7.170;2023-04-25T16:23:09;10.10;99.90
5358;DHT22;2702;51.014;7.170;2023-04-25T16:25:35;9.90;99.90
5358;DHT22;2702;51.014;7.170;2023-04-25T16:28:01;9.70;99.90
5358;DHT22;2702;51.014;7.170;2023-04-25T16:30:27;9.50;99.90
5358;DHT22;2702;51.014;7.170;2023-04-25T16:32:53;9.50;99.90